Time;durP1;ratioP1;P1;durP2;ratioP2;P2;SDS_P1;SDS_P2;PMS_P1;PMS_P2;Temp;Humidity;BMP_temperature;BMP_pressure;BME280_temperature;BME280_humidity;BME280_pressure;Samples;Min_cycle;Max_cycle;Signal;HPM_P1;HPM_P2
2023/09/26 00:12:44;;;;;;;11.50;4.85;;;;;;;;;;4349259;32;388310;-87
2023/09/26 00:15:12;;;;;;;14.00;4.45;;;;;;;;;;4378457;32;317724;-85
2023/09/26 00:17:40;;;;;;;14.00;8.75;;;;;;;;;;4351048;32;318032;-86
2023/09/26 00:20:10;;;;;;;18.33;11.93;;;;;;;;;;4376495;32;332841;-86
2023/09/26 00:22:38;;;;;;;23.90;12.95;;;;;;;;;;4377284;32;318852;-86
2023/09/26 00:25:06;;;;;;;38.28;21.33;;;;;;;;;;4375557;32;318930;-86
2023/09/26 00:27:33;;;;;;;38.88;22.85;;;;;;;;;;4377146;32;318974;-86
2023/09/26 00:30:02;;;;;;;27.95;19.45;;;;;;;;;;4371731;32;318829;-85
2023/09/26 00:32:30;;;;;;;18.12;12.93;;;;;;;;;;4380765;32;318843;-87
2023/09/26 00:34:57;;;;;;;16.90;10.75;;;;;;;;;;4365441;32;319119;-87
2023/09/26 00:37:25;;;;;;;14.40;7.03;;;;;;;;;;4380017;32;318840;-86
2023/09/26 00:39:52;;;;;;;9.70;5.20;;;;;;;;;;4372332;32;317921;-86
2023/09/26 00:42:19;;;;;;;10.20;5.22;;;;;;;;;;4378403;32;316823;-86
2023/09/26 00:44:48;;;;;;;14.23;5.15;;;;;;;;;;4367706;32;318078;-87
2023/09/26 00:47:17;;;;;;;10.93;4.72;;;;;;;;;;4377958;32;317851;-86
2023/09/26 00:49:44;;;;;;;11.30;4.87;;;;;;;;;;4366178;32;318180;-86
2023/09/26 00:52:13;;;;;;;8.70;5.00;;;;;;;;;;4384409;32;318143;-86
2023/09/26 00:54:40;;;;;;;19.25;5.43;;;;;;;;;;4366963;32;317086;-86
2023/09/26 00:57:08;;;;;;;11.88;6.00;;;;;;;;;;4375174;32;317256;-84
2023/09/26 00:59:37;;;;;;;14.02;5.22;;;;;;;;;;4375018;32;317538;-86
2023/09/26 01:02:05;;;;;;;7.70;4.78;;;;;;;;;;4369511;32;417499;-86
2023/09/26 01:04:34;;;;;;;10.13;4.80;;;;;;;;;;4380489;32;316784;-87
2023/09/26 01:07:01;;;;;;;7.47;4.55;;;;;;;;;;4359667;32;317767;-86
2023/09/26 01:09:28;;;;;;;17.17;5.72;;;;;;;;;;4378366;32;316734;-86
2023/09/26 01:11:56;;;;;;;21.98;6.00;;;;;;;;;;4368561;32;317929;-87
2023/09/26 01:14:23;;;;;;;10.73;5.10;;;;;;;;;;4379356;32;317786;-86
2023/09/26 01:16:55;;;;;;;14.65;5.47;;;;;;;;;;4368986;32;317913;-86
2023/09/26 01:19:23;;;;;;;12.05;4.47;;;;;;;;;;4378691;32;317806;-87
2023/09/26 01:21:51;;;;;;;13.35;4.85;;;;;;;;;;4368497;32;317667;-87
2023/09/26 01:24:20;;;;;;;7.78;4.93;;;;;;;;;;4379155;32;317765;-86
2023/09/26 01:26:49;;;;;;;9.10;4.47;;;;;;;;;;4370655;32;317001;-88
2023/09/26 01:29:16;;;;;;;13.48;4.85;;;;;;;;;;4377359;32;316607;-87
2023/09/26 01:31:44;;;;;;;8.70;4.60;;;;;;;;;;4367830;32;318124;-85
2023/09/26 01:34:11;;;;;;;8.73;3.78;;;;;;;;;;4378846;32;316742;-86
2023/09/26 01:36:38;;;;;;;7.03;4.62;;;;;;;;;;4362586;32;316703;-87
2023/09/26 01:39:06;;;;;;;12.10;4.97;;;;;;;;;;4381640;32;316724;-84
2023/09/26 01:41:35;;;;;;;8.82;4.80;;;;;;;;;;4376116;32;317482;-87
2023/09/26 01:44:03;;;;;;;7.18;4.45;;;;;;;;;;4369199;32;316721;-86
2023/09/26 01:46:31;;;;;;;11.57;4.30;;;;;;;;;;4381010;32;316801;-86
2023/09/26 01:48:58;;;;;;;14.02;4.75;;;;;;;;;;4360801;32;329525;-87
2023/09/26 01:51:25;;;;;;;12.68;5.28;;;;;;;;;;4375719;32;317799;-84
2023/09/26 01:53:53;;;;;;;15.55;4.43;;;;;;;;;;4367758;32;318060;-87
2023/09/26 01:56:21;;;;;;;6.15;3.58;;;;;;;;;;4378449;32;325370;-85
2023/09/26 01:58:50;;;;;;;7.93;4.25;;;;;;;;;;4367699;32;357808;-89
2023/09/26 02:01:17;;;;;;;14.38;5.55;;;;;;;;;;4377985;32;316735;-85
2023/09/26 02:03:44;;;;;;;11.48;4.93;;;;;;;;;;4366447;32;318313;-87
2023/09/26 02:06:12;;;;;;;13.60;4.45;;;;;;;;;;4378346;32;317652;-86
2023/09/26 02:08:39;;;;;;;16.10;5.20;;;;;;;;;;4365848;32;351791;-85
2023/09/26 02:11:06;;;;;;;11.68;4.53;;;;;;;;;;4377280;32;317874;-85
2023/09/26 02:13:34;;;;;;;14.43;4.37;;;;;;;;;;4380776;32;318149;-85
2023/09/26 02:16:03;;;;;;;12.82;5.47;;;;;;;;;;4366949;32;317937;-85
2023/09/26 02:18:32;;;;;;;10.63;4.35;;;;;;;;;;4377931;32;317869;-85
2023/09/26 02:20:59;;;;;;;13.20;4.43;;;;;;;;;;4362905;32;354051;-86
2023/09/26 02:23:27;;;;;;;16.60;5.28;;;;;;;;;;4377098;32;317552;-86
2023/09/26 02:25:54;;;;;;;8.85;4.65;;;;;;;;;;4371523;32;318112;-86
2023/09/26 02:28:21;;;;;;;12.63;5.57;;;;;;;;;;4377743;32;316823;-86
2023/09/26 02:30:50;;;;;;;9.45;4.00;;;;;;;;;;4366183;32;318022;-86
2023/09/26 02:33:19;;;;;;;7.43;4.28;;;;;;;;;;4368827;32;316836;-87
2023/09/26 02:35:46;;;;;;;9.53;4.43;;;;;;;;;;4371725;32;316806;-87
2023/09/26 02:38:14;;;;;;;14.57;5.18;;;;;;;;;;4377422;32;317017;-87
2023/09/26 02:40:41;;;;;;;10.93;4.78;;;;;;;;;;4367340;32;317772;-87
2023/09/26 02:43:09;;;;;;;8.60;4.72;;;;;;;;;;4375039;32;317610;-87
2023/09/26 02:45:36;;;;;;;12.63;4.97;;;;;;;;;;4379705;32;335563;-85
2023/09/26 02:48:05;;;;;;;17.23;4.03;;;;;;;;;;4358264;32;416927;-85
2023/09/26 02:50:34;;;;;;;14.43;4.32;;;;;;;;;;4368806;32;316670;-85
2023/09/26 02:53:02;;;;;;;12.65;4.47;;;;;;;;;;4354920;32;317899;-86
2023/09/26 02:55:29;;;;;;;10.32;5.03;;;;;;;;;;4368813;32;317802;-85
2023/09/26 02:57:56;;;;;;;16.95;6.47;;;;;;;;;;4354566;32;336199;-86
2023/09/26 03:00:24;;;;;;;11.35;4.57;;;;;;;;;;4367989;32;317507;-85
2023/09/26 03:02:51;;;;;;;13.10;4.60;;;;;;;;;;4353227;32;318034;-88
2023/09/26 03:05:18;;;;;;;11.85;4.57;;;;;;;;;;4367513;32;334577;-87
2023/09/26 03:07:47;;;;;;;10.23;4.45;;;;;;;;;;4358155;32;317694;-87
2023/09/26 03:10:16;;;;;;;7.97;4.43;;;;;;;;;;4365207;32;318223;-87
2023/09/26 03:12:45;;;;;;;8.23;4.05;;;;;;;;;;4355624;32;316698;-87
2023/09/26 03:15:13;;;;;;;9.40;4.78;;;;;;;;;;4365048;32;316971;-87
2023/09/26 03:17:40;;;;;;;15.10;5.03;;;;;;;;;;4357211;32;316779;-87
2023/09/26 03:20:10;;;;;;;14.70;4.97;;;;;;;;;;4366931;32;317885;-87
2023/09/26 03:22:38;;;;;;;13.90;4.75;;;;;;;;;;4364654;32;317727;-87
2023/09/26 03:25:07;;;;;;;16.67;5.43;;;;;;;;;;4365051;32;318009;-87
2023/09/26 03:27:35;;;;;;;13.95;5.10;;;;;;;;;;4367101;32;317978;-85
2023/09/26 03:30:02;;;;;;;17.00;5.07;;;;;;;;;;4358397;32;317903;-86
2023/09/26 03:32:30;;;;;;;8.65;4.57;;;;;;;;;;4366979;32;317687;-85
2023/09/26 03:34:57;;;;;;;18.08;5.12;;;;;;;;;;4355966;32;316927;-86
2023/09/26 03:37:24;;;;;;;17.00;5.18;;;;;;;;;;4366859;32;317902;-86
2023/09/26 03:39:52;;;;;;;14.32;5.03;;;;;;;;;;4356927;32;317961;-87
2023/09/26 03:42:20;;;;;;;16.90;4.68;;;;;;;;;;4367480;32;317696;-86
2023/09/26 03:44:48;;;;;;;17.17;5.15;;;;;;;;;;4358208;32;317836;-86
2023/09/26 03:47:15;;;;;;;20.12;6.10;;;;;;;;;;4366274;32;317904;-85
2023/09/26 03:49:42;;;;;;;16.90;4.68;;;;;;;;;;4357775;32;317628;-86
2023/09/26 03:52:10;;;;;;;8.35;4.22;;;;;;;;;;4367561;32;317766;-86
2023/09/26 03:54:37;;;;;;;10.93;5.30;;;;;;;;;;4368896;32;316751;-85
2023/09/26 03:57:05;;;;;;;10.80;4.78;;;;;;;;;;4363456;32;417202;-87
2023/09/26 03:59:34;;;;;;;16.25;5.62;;;;;;;;;;4379502;32;317880;-86
2023/09/26 04:02:01;;;;;;;12.32;7.25;;;;;;;;;;4365369;32;318166;-86
2023/09/26 04:04:31;;;;;;;23.05;10.00;;;;;;;;;;4376314;32;317773;-84
2023/09/26 04:06:58;;;;;;;21.87;10.95;;;;;;;;;;4361157;32;318871;-86
2023/09/26 04:09:26;;;;;;;19.37;10.32;;;;;;;;;;4376115;32;318551;-85
2023/09/26 04:11:53;;;;;;;21.08;8.77;;;;;;;;;;4367141;32;318982;-85
2023/09/26 04:14:20;;;;;;;16.85;8.55;;;;;;;;;;4366206;32;317759;-85
2023/09/26 04:16:49;;;;;;;13.52;6.35;;;;;;;;;;4374665;32;318202;-85
2023/09/26 04:19:17;;;;;;;14.52;6.22;;;;;;;;;;4379205;32;318122;-85
2023/09/26 04:21:45;;;;;;;15.95;5.32;;;;;;;;;;4375525;32;318015;-86
2023/09/26 04:24:12;;;;;;;12.07;5.00;;;;;;;;;;4385605;32;318063;-85
2023/09/26 04:26:39;;;;;;;14.82;4.95;;;;;;;;;;4369068;32;350654;-86
2023/09/26 04:29:07;;;;;;;17.40;8.35;;;;;;;;;;4382635;32;317832;-85
2023/09/26 04:31:34;;;;;;;21.35;7.32;;;;;;;;;;4385388;32;317962;-85
2023/09/26 04:34:03;;;;;;;18.12;7.97;;;;;;;;;;4374105;32;351751;-87
2023/09/26 04:36:30;;;;;;;12.23;6.53;;;;;;;;;;4385265;32;317677;-86
2023/09/26 04:38:57;;;;;;;10.75;6.90;;;;;;;;;;4368039;32;317937;-86
2023/09/26 04:41:25;;;;;;;13.25;5.70;;;;;;;;;;4383347;32;317617;-87
2023/09/26 04:43:52;;;;;;;22.37;5.80;;;;;;;;;;4374495;32;317937;-86
2023/09/26 04:46:19;;;;;;;20.65;5.45;;;;;;;;;;4384183;32;317445;-87
2023/09/26 04:48:48;;;;;;;22.62;5.45;;;;;;;;;;4374555;32;317805;-89
2023/09/26 04:51:17;;;;;;;19.77;5.45;;;;;;;;;;4380025;32;317733;-88
2023/09/26 04:53:44;;;;;;;17.05;5.62;;;;;;;;;;4375094;32;318132;-88
2023/09/26 04:56:12;;;;;;;20.73;5.85;;;;;;;;;;4383305;32;317635;-87
2023/09/26 04:58:40;;;;;;;14.85;5.15;;;;;;;;;;4374524;32;318052;-86
2023/09/26 05:01:13;;;;;;;19.75;6.50;;;;;;;;;;4379921;32;343587;-87
2023/09/26 05:03:42;;;;;;;28.85;6.90;;;;;;;;;;4384482;32;334455;-88
2023/09/26 05:06:10;;;;;;;18.55;5.60;;;;;;;;;;4367518;32;317862;-87
2023/09/26 05:08:39;;;;;;;29.08;6.07;;;;;;;;;;4384880;32;317643;-87
2023/09/26 05:11:06;;;;;;;14.00;5.62;;;;;;;;;;4373458;32;317990;-85
2023/09/26 05:13:34;;;;;;;16.60;4.30;;;;;;;;;;4383913;32;318263;-88
2023/09/26 05:16:04;;;;;;;14.68;4.78;;;;;;;;;;4374145;32;317738;-88
2023/09/26 05:18:31;;;;;;;17.12;4.60;;;;;;;;;;4383852;32;317202;-85
2023/09/26 05:20:59;;;;;;;16.80;4.82;;;;;;;;;;4373640;32;318100;-88
2023/09/26 05:23:26;;;;;;;21.35;5.72;;;;;;;;;;4385097;32;317662;-87
2023/09/26 05:25:55;;;;;;;15.80;4.82;;;;;;;;;;4370313;32;327721;-87
2023/09/26 05:28:22;;;;;;;19.10;5.95;;;;;;;;;;4377700;32;317810;-87
2023/09/26 05:30:49;;;;;;;25.23;6.28;;;;;;;;;;4383224;32;338608;-87
2023/09/26 05:33:17;;;;;;;28.62;5.72;;;;;;;;;;4370646;32;417371;-86
2023/09/26 05:35:44;;;;;;;22.75;5.22;;;;;;;;;;4383568;32;317102;-87
2023/09/26 05:38:12;;;;;;;17.23;4.20;;;;;;;;;;4368435;32;317918;-86
2023/09/26 05:40:39;;;;;;;15.40;4.72;;;;;;;;;;4365715;32;317827;-87
2023/09/26 05:43:08;;;;;;;11.33;4.57;;;;;;;;;;4357100;32;318267;-89
2023/09/26 05:45:36;;;;;;;21.90;4.87;;;;;;;;;;4368739;32;318340;-90
2023/09/26 05:48:04;;;;;;;15.95;4.57;;;;;;;;;;4357384;32;317909;-89
2023/09/26 05:50:31;;;;;;;22.58;5.43;;;;;;;;;;4364679;32;317926;-88
2023/09/26 05:52:59;;;;;;;20.67;4.83;;;;;;;;;;4356140;32;341396;-88
2023/09/26 05:55:27;;;;;;;21.40;4.50;;;;;;;;;;4366840;32;316842;-88
2023/09/26 05:57:54;;;;;;;17.60;4.60;;;;;;;;;;4358050;32;318020;-89
2023/09/26 06:00:23;;;;;;;28.12;5.10;;;;;;;;;;4364217;32;356342;-86
2023/09/26 06:02:53;;;;;;;11.80;4.53;;;;;;;;;;4365860;32;356820;-85
2023/09/26 06:05:20;;;;;;;26.10;4.53;;;;;;;;;;4368041;32;417174;-84
2023/09/26 06:07:49;;;;;;;16.23;4.32;;;;;;;;;;4375725;32;318026;-85
2023/09/26 06:10:16;;;;;;;20.80;4.00;;;;;;;;;;4365531;32;416927;-86
2023/09/26 06:12:44;;;;;;;8.68;4.68;;;;;;;;;;4368372;32;318003;-85
2023/09/26 06:15:11;;;;;;;14.52;4.30;;;;;;;;;;4373272;32;316893;-85
2023/09/26 06:17:41;;;;;;;17.02;4.28;;;;;;;;;;4382173;32;317834;-84
2023/09/26 06:20:10;;;;;;;17.52;5.00;;;;;;;;;;4367767;32;317743;-85
2023/09/26 06:22:37;;;;;;;14.02;3.67;;;;;;;;;;4380842;32;317793;-85
2023/09/26 06:25:05;;;;;;;23.27;5.18;;;;;;;;;;4372876;32;318176;-83
2023/09/26 06:27:36;;;;;;;16.48;5.00;;;;;;;;;;4382436;32;317796;-84
2023/09/26 06:30:05;;;;;;;18.30;4.35;;;;;;;;;;4370597;32;317793;-87
2023/09/26 06:32:32;;;;;;;16.48;5.18;;;;;;;;;;4380373;32;318020;-85
2023/09/26 06:35:01;;;;;;;29.23;5.28;;;;;;;;;;4373886;32;317946;-86
2023/09/26 06:37:28;;;;;;;14.10;3.30;;;;;;;;;;4381983;32;317994;-85
2023/09/26 06:40:00;;;;;;;14.60;3.92;;;;;;;;;;4371590;32;318109;-84
2023/09/26 06:42:27;;;;;;;15.32;3.90;;;;;;;;;;4379910;32;318014;-90
2023/09/26 06:44:54;;;;;;;14.65;5.05;;;;;;;;;;4372715;32;317819;-89
2023/09/26 06:47:22;;;;;;;18.80;3.45;;;;;;;;;;4383378;32;317962;-85
2023/09/26 06:49:49;;;;;;;9.70;4.30;;;;;;;;;;4382746;32;317598;-87
2023/09/26 06:52:17;;;;;;;31.27;5.07;;;;;;;;;;4367148;32;415939;-86
2023/09/26 06:54:45;;;;;;;19.77;4.55;;;;;;;;;;4382249;32;317760;-88
2023/09/26 06:57:15;;;;;;;9.60;4.35;;;;;;;;;;4372729;32;317742;-93
2023/09/26 06:59:43;;;;;;;13.68;3.60;;;;;;;;;;4382344;32;327569;-89
2023/09/26 07:02:10;;;;;;;17.48;5.10;;;;;;;;;;4365851;32;317776;-88
2023/09/26 07:04:37;;;;;;;19.25;4.07;;;;;;;;;;4384310;32;318059;-88
2023/09/26 07:07:04;;;;;;;12.68;3.85;;;;;;;;;;4369951;32;317964;-82
2023/09/26 07:09:33;;;;;;;10.32;4.50;;;;;;;;;;4381743;32;317845;-86
2023/09/26 07:12:03;;;;;;;10.73;3.83;;;;;;;;;;4369392;32;333422;-86
2023/09/26 07:14:35;;;;;;;21.50;4.97;;;;;;;;;;4381376;32;317857;-86
2023/09/26 07:17:02;;;;;;;12.13;4.45;;;;;;;;;;4372426;32;318226;-86
2023/09/26 07:19:32;;;;;;;13.18;3.97;;;;;;;;;;4380255;32;337815;-86
2023/09/26 07:22:00;;;;;;;27.77;4.40;;;;;;;;;;4373563;32;318026;-82
2023/09/26 07:24:27;;;;;;;17.62;4.25;;;;;;;;;;4379336;32;318156;-90
2023/09/26 07:26:56;;;;;;;15.02;3.87;;;;;;;;;;4371175;32;343993;-90
2023/09/26 07:29:24;;;;;;;24.48;4.62;;;;;;;;;;4382633;32;317833;-84
2023/09/26 07:31:52;;;;;;;15.60;3.67;;;;;;;;;;4372085;32;317787;-84
2023/09/26 07:34:20;;;;;;;15.15;4.47;;;;;;;;;;4379782;32;317887;-87
2023/09/26 07:36:48;;;;;;;22.95;4.37;;;;;;;;;;4382750;32;317908;-84
2023/09/26 07:39:17;;;;;;;17.05;3.80;;;;;;;;;;4372249;32;317990;-83
2023/09/26 07:41:45;;;;;;;13.10;3.65;;;;;;;;;;4382508;32;317600;-83
2023/09/26 07:44:14;;;;;;;10.45;3.85;;;;;;;;;;4369549;32;318044;-82
2023/09/26 07:46:42;;;;;;;19.52;3.62;;;;;;;;;;4381635;32;318085;-83
2023/09/26 07:49:09;;;;;;;19.02;3.75;;;;;;;;;;4371484;32;318028;-85
2023/09/26 07:51:36;;;;;;;15.68;3.42;;;;;;;;;;4383848;32;318395;-84
2023/09/26 07:54:04;;;;;;;16.13;4.83;;;;;;;;;;4372996;32;351898;-86
2023/09/26 07:56:31;;;;;;;8.75;3.92;;;;;;;;;;4383674;32;318310;-84
2023/09/26 07:58:58;;;;;;;18.55;3.65;;;;;;;;;;4375932;32;317042;-85
2023/09/26 08:01:27;;;;;;;13.75;3.47;;;;;;;;;;4383796;32;317982;-86
2023/09/26 08:03:54;;;;;;;11.60;3.05;;;;;;;;;;4375216;32;317628;-83
2023/09/26 08:06:22;;;;;;;14.38;3.10;;;;;;;;;;4379284;32;357245;-86
2023/09/26 08:08:49;;;;;;;17.45;3.80;;;;;;;;;;4385066;32;317951;-87
2023/09/26 08:11:16;;;;;;;15.45;3.67;;;;;;;;;;4375189;32;317759;-86
2023/09/26 08:13:43;;;;;;;13.13;3.33;;;;;;;;;;4385313;32;317844;-86
2023/09/26 08:16:12;;;;;;;11.23;4.00;;;;;;;;;;4373148;32;318005;-87
2023/09/26 08:18:41;;;;;;;16.92;3.83;;;;;;;;;;4386230;32;317908;-84
2023/09/26 08:21:08;;;;;;;16.12;3.75;;;;;;;;;;4373757;32;317703;-85
2023/09/26 08:23:36;;;;;;;19.42;3.92;;;;;;;;;;4383910;32;357440;-82
2023/09/26 08:26:06;;;;;;;20.40;3.85;;;;;;;;;;4371672;32;317262;-86
2023/09/26 08:28:34;;;;;;;16.15;3.03;;;;;;;;;;4385719;32;318069;-85
2023/09/26 08:31:05;;;;;;;11.12;4.93;;;;;;;;;;4372777;32;317885;-83
2023/09/26 08:33:33;;;;;;;19.65;2.97;;;;;;;;;;4386071;32;318027;-85
2023/09/26 08:36:02;;;;;;;16.62;3.47;;;;;;;;;;4374444;32;317700;-85
2023/09/26 08:38:29;;;;;;;16.45;3.10;;;;;;;;;;4381871;32;317761;-85
2023/09/26 08:40:59;;;;;;;16.75;3.83;;;;;;;;;;4375445;32;317828;-83
2023/09/26 08:43:29;;;;;;;10.65;3.75;;;;;;;;;;4383907;32;316813;-84
2023/09/26 08:45:56;;;;;;;12.90;2.97;;;;;;;;;;4372908;32;317770;-84
2023/09/26 08:48:23;;;;;;;14.63;3.65;;;;;;;;;;4382169;32;318009;-85
2023/09/26 08:50:52;;;;;;;15.27;3.15;;;;;;;;;;4383804;32;318017;-86
2023/09/26 08:53:21;;;;;;;15.82;3.62;;;;;;;;;;4383601;32;317902;-87
2023/09/26 08:55:49;;;;;;;10.55;3.17;;;;;;;;;;4384337;32;318132;-85
2023/09/26 08:58:20;;;;;;;20.80;4.10;;;;;;;;;;4367579;32;416848;-84
2023/09/26 09:00:48;;;;;;;13.43;3.33;;;;;;;;;;4384620;32;317643;-83
2023/09/26 09:03:15;;;;;;;11.00;4.15;;;;;;;;;;4372212;32;317725;-84
2023/09/26 09:05:42;;;;;;;12.68;3.65;;;;;;;;;;4385004;32;317895;-84
2023/09/26 09:08:17;;;;;;;11.77;3.00;;;;;;;;;;4368965;32;336058;-83
2023/09/26 09:10:52;;;;;;;14.90;3.62;;;;;;;;;;4384472;32;317909;-84
2023/09/26 09:13:28;;;;;;;16.77;3.58;;;;;;;;;;4371945;32;418103;-84
2023/09/26 09:16:14;;;;;;;13.68;3.58;;;;;;;;;;4373555;32;318237;-84
2023/09/26 09:18:43;;;;;;;17.67;4.28;;;;;;;;;;4382381;32;317709;-92
2023/09/26 09:21:26;;;;;;;12.20;4.62;;;;;;;;;;4373143;32;317915;-82
2023/09/26 09:23:54;;;;;;;12.07;3.53;;;;;;;;;;4367226;32;317832;-87
2023/09/26 09:26:26;;;;;;;18.23;3.47;;;;;;;;;;4380650;32;318033;-85
2023/09/26 09:28:55;;;;;;;11.07;3.17;;;;;;;;;;4375001;32;317797;-85
2023/09/26 09:31:23;;;;;;;21.37;3.58;;;;;;;;;;4384313;32;317716;-83
2023/09/26 09:33:53;;;;;;;18.70;4.55;;;;;;;;;;4384569;32;318598;-87
2023/09/26 09:36:21;;;;;;;19.05;3.78;;;;;;;;;;4363218;32;417876;-86
2023/09/26 09:38:48;;;;;;;18.62;4.20;;;;;;;;;;4378299;32;317825;-86
2023/09/26 09:41:16;;;;;;;23.20;4.80;;;;;;;;;;4367836;32;317772;-86
2023/09/26 09:43:45;;;;;;;12.73;3.92;;;;;;;;;;4375991;32;317736;-86
2023/09/26 09:46:13;;;;;;;21.85;4.25;;;;;;;;;;4363420;32;318471;-85
2023/09/26 09:48:46;;;;;;;9.82;3.15;;;;;;;;;;4379252;32;317877;-85
2023/09/26 09:51:14;;;;;;;14.95;4.12;;;;;;;;;;4370023;32;316911;-88
2023/09/26 09:53:45;;;;;;;9.38;3.25;;;;;;;;;;4364093;32;356326;-87
2023/09/26 09:56:18;;;;;;;16.15;3.42;;;;;;;;;;4370881;32;316907;-88
2023/09/26 09:58:52;;;;;;;11.88;3.33;;;;;;;;;;4378278;32;317797;-87
2023/09/26 10:01:20;;;;;;;18.65;3.67;;;;;;;;;;4367992;32;417159;-87
2023/09/26 10:03:50;;;;;;;12.95;3.60;;;;;;;;;;4381049;32;317832;-86
2023/09/26 10:06:18;;;;;;;8.65;4.28;;;;;;;;;;4364432;32;418065;-87
2023/09/26 10:08:47;;;;;;;17.15;4.72;;;;;;;;;;4377249;32;316679;-86
2023/09/26 10:11:15;;;;;;;19.20;4.57;;;;;;;;;;4365853;32;346167;-84
2023/09/26 10:13:42;;;;;;;20.65;5.00;;;;;;;;;;4376559;32;317772;-87
2023/09/26 10:16:15;;;;;;;16.55;4.35;;;;;;;;;;4363876;32;317866;-87
2023/09/26 10:18:44;;;;;;;19.35;3.40;;;;;;;;;;4377317;32;318231;-84
2023/09/26 10:21:25;;;;;;;16.60;3.50;;;;;;;;;;4369575;32;317860;-86
2023/09/26 10:24:23;;;;;;;10.77;3.37;;;;;;;;;;4370511;32;317781;-87
2023/09/26 10:26:53;;;;;;;20.75;4.95;;;;;;;;;;4378792;32;317877;-84
2023/09/26 10:29:23;;;;;;;17.23;5.15;;;;;;;;;;4366633;32;418090;-86
2023/09/26 10:31:57;;;;;;;15.30;3.97;;;;;;;;;;4380489;32;317857;-86
2023/09/26 10:34:27;;;;;;;16.92;3.70;;;;;;;;;;4359046;32;417340;-86
2023/09/26 10:36:55;;;;;;;18.37;3.83;;;;;;;;;;4363527;32;317907;-87
2023/09/26 10:39:34;;;;;;;16.87;4.25;;;;;;;;;;4379384;32;318057;-86
2023/09/26 10:42:13;;;;;;;11.32;3.25;;;;;;;;;;4369549;32;318022;-87
2023/09/26 10:44:40;;;;;;;10.15;4.18;;;;;;;;;;4379614;32;317624;-85
2023/09/26 10:47:13;;;;;;;22.40;3.72;;;;;;;;;;4364188;32;317796;-88
2023/09/26 10:49:40;;;;;;;16.75;3.75;;;;;;;;;;4376888;32;318121;-86
2023/09/26 10:52:09;;;;;;;9.60;4.03;;;;;;;;;;4366558;32;317899;-87
2023/09/26 10:54:37;;;;;;;11.55;4.00;;;;;;;;;;4353509;32;316871;-84
2023/09/26 10:57:05;;;;;;;12.48;3.78;;;;;;;;;;4366292;32;317661;-87
2023/09/26 10:59:33;;;;;;;13.57;3.72;;;;;;;;;;4377546;32;318103;-85
2023/09/26 11:02:01;;;;;;;14.35;3.85;;;;;;;;;;4369393;32;318091;-86
2023/09/26 11:04:32;;;;;;;18.23;4.80;;;;;;;;;;4373126;32;318950;-84
2023/09/26 11:07:02;;;;;;;16.35;4.62;;;;;;;;;;4365329;32;318078;-86
2023/09/26 11:09:30;;;;;;;21.08;5.28;;;;;;;;;;4379241;32;317865;-84
2023/09/26 11:11:57;;;;;;;20.35;4.30;;;;;;;;;;4365177;32;317759;-83
2023/09/26 11:14:26;;;;;;;12.23;3.53;;;;;;;;;;4374461;32;317551;-84
2023/09/26 11:16:54;;;;;;;9.63;3.75;;;;;;;;;;4366134;32;318255;-83
2023/09/26 11:19:24;;;;;;;11.88;4.28;;;;;;;;;;4378910;32;331688;-85
2023/09/26 11:21:54;;;;;;;17.77;3.95;;;;;;;;;;4378120;32;317637;-86
2023/09/26 11:24:23;;;;;;;13.82;3.80;;;;;;;;;;4371132;32;317705;-88
2023/09/26 11:26:53;;;;;;;16.20;4.93;;;;;;;;;;4374238;32;317763;-87
2023/09/26 11:29:20;;;;;;;10.35;3.58;;;;;;;;;;4365815;32;417026;-87
2023/09/26 11:31:48;;;;;;;9.77;3.08;;;;;;;;;;4378534;32;317892;-87
2023/09/26 11:34:18;;;;;;;19.58;3.55;;;;;;;;;;4363088;32;317102;-87
2023/09/26 11:36:45;;;;;;;24.85;4.75;;;;;;;;;;4376226;32;317886;-86
2023/09/26 11:39:18;;;;;;;12.35;3.33;;;;;;;;;;4365309;32;318308;-85
2023/09/26 11:41:46;;;;;;;11.25;3.90;;;;;;;;;;4378254;32;317882;-85
2023/09/26 11:44:16;;;;;;;14.93;3.62;;;;;;;;;;4369091;32;317570;-87
2023/09/26 11:46:47;;;;;;;18.73;3.72;;;;;;;;;;4379350;32;317691;-85
2023/09/26 11:49:15;;;;;;;4.97;2.85;;;;;;;;;;4366684;32;329224;-87
2023/09/26 11:51:42;;;;;;;10.75;3.22;;;;;;;;;;4375520;32;357528;-85
2023/09/26 11:54:10;;;;;;;10.88;3.53;;;;;;;;;;4364267;32;317986;-86
2023/09/26 11:56:44;;;;;;;12.95;3.12;;;;;;;;;;4378053;32;317788;-87
2023/09/26 11:59:12;;;;;;;11.45;3.10;;;;;;;;;;4370043;32;317637;-85
2023/09/26 12:01:41;;;;;;;11.32;3.60;;;;;;;;;;4378703;32;317623;-85
2023/09/26 12:04:11;;;;;;;17.83;2.90;;;;;;;;;;4365857;32;317581;-85
2023/09/26 12:06:40;;;;;;;13.38;3.08;;;;;;;;;;4373042;32;318063;-85
2023/09/26 12:09:10;;;;;;;10.13;3.75;;;;;;;;;;4363971;32;317979;-85
2023/09/26 12:11:40;;;;;;;12.13;3.22;;;;;;;;;;4377164;32;317873;-85
2023/09/26 12:14:08;;;;;;;9.63;2.47;;;;;;;;;;4364701;32;317917;-86
2023/09/26 12:16:36;;;;;;;5.05;2.53;;;;;;;;;;4381345;32;316746;-86
2023/09/26 12:19:03;;;;;;;16.08;3.10;;;;;;;;;;4371079;32;316921;-85
2023/09/26 12:21:30;;;;;;;5.62;2.80;;;;;;;;;;4381495;32;317565;-85
2023/09/26 12:23:58;;;;;;;9.10;3.17;;;;;;;;;;4370955;32;316641;-85
2023/09/26 12:26:25;;;;;;;13.57;3.65;;;;;;;;;;4377592;32;316761;-85
2023/09/26 12:28:54;;;;;;;13.55;3.20;;;;;;;;;;4371219;32;317740;-86
2023/09/26 12:31:21;;;;;;;8.50;3.15;;;;;;;;;;4381634;32;334991;-86
2023/09/26 12:33:48;;;;;;;18.75;3.90;;;;;;;;;;4383212;32;317048;-86
2023/09/26 12:36:16;;;;;;;21.23;4.78;;;;;;;;;;4369765;32;318102;-86
2023/09/26 12:38:44;;;;;;;13.90;4.12;;;;;;;;;;4381126;32;317601;-86
2023/09/26 12:41:11;;;;;;;13.27;2.80;;;;;;;;;;4371729;32;317692;-85
2023/09/26 12:43:40;;;;;;;13.95;4.35;;;;;;;;;;4385673;32;318002;-86
2023/09/26 12:46:09;;;;;;;17.52;4.20;;;;;;;;;;4371672;32;317901;-86
2023/09/26 12:48:36;;;;;;;17.33;4.28;;;;;;;;;;4383470;32;317588;-85
2023/09/26 12:51:04;;;;;;;15.95;4.53;;;;;;;;;;4374813;32;317999;-86
2023/09/26 12:53:32;;;;;;;9.25;2.60;;;;;;;;;;4380447;32;317665;-86
2023/09/26 12:55:59;;;;;;;8.23;2.95;;;;;;;;;;4373690;32;316751;-86
2023/09/26 12:58:27;;;;;;;6.35;2.80;;;;;;;;;;4382608;32;316779;-86
2023/09/26 13:00:54;;;;;;;14.02;3.10;;;;;;;;;;4375267;32;318492;-86
2023/09/26 13:03:23;;;;;;;15.70;3.17;;;;;;;;;;4384412;32;317509;-86
2023/09/26 13:05:50;;;;;;;13.07;3.70;;;;;;;;;;4382820;32;317651;-86
2023/09/26 13:08:18;;;;;;;12.07;3.83;;;;;;;;;;4368447;32;417483;-86
2023/09/26 13:10:45;;;;;;;11.00;3.00;;;;;;;;;;4384413;32;317936;-86
2023/09/26 13:13:13;;;;;;;14.63;2.92;;;;;;;;;;4369702;32;317928;-86
2023/09/26 13:15:40;;;;;;;15.70;3.60;;;;;;;;;;4381770;32;317640;-86
2023/09/26 13:18:09;;;;;;;10.70;2.78;;;;;;;;;;4375455;32;317799;-86
2023/09/26 13:20:38;;;;;;;17.02;3.10;;;;;;;;;;4384929;32;317828;-86
2023/09/26 13:23:05;;;;;;;10.50;3.25;;;;;;;;;;4384464;32;317945;-86
2023/09/26 13:25:33;;;;;;;15.52;3.33;;;;;;;;;;4369905;32;317790;-86
2023/09/26 13:28:00;;;;;;;22.27;4.28;;;;;;;;;;4383724;32;317872;-85
2023/09/26 13:30:28;;;;;;;10.07;3.22;;;;;;;;;;4372455;32;336082;-87
2023/09/26 13:32:56;;;;;;;15.27;3.80;;;;;;;;;;4382352;32;317663;-87
2023/09/26 13:35:25;;;;;;;19.62;3.70;;;;;;;;;;4370598;32;317734;-87
2023/09/26 13:37:54;;;;;;;16.90;3.20;;;;;;;;;;4384636;32;317847;-86
2023/09/26 13:40:21;;;;;;;14.75;3.70;;;;;;;;;;4374665;32;318367;-84
2023/09/26 13:42:49;;;;;;;11.27;3.15;;;;;;;;;;4383749;32;317890;-85
2023/09/26 13:45:18;;;;;;;13.27;2.75;;;;;;;;;;4374732;32;317943;-85
2023/09/26 13:47:45;;;;;;;12.90;2.95;;;;;;;;;;4381805;32;317968;-85
2023/09/26 13:50:12;;;;;;;18.75;3.65;;;;;;;;;;4371122;32;321295;-85
2023/09/26 13:52:40;;;;;;;16.45;3.78;;;;;;;;;;4383053;32;318003;-85
2023/09/26 13:55:11;;;;;;;34.85;4.12;;;;;;;;;;4383067;32;317696;-84
2023/09/26 13:57:38;;;;;;;11.40;3.25;;;;;;;;;;4362609;32;416927;-85
2023/09/26 14:00:08;;;;;;;9.05;3.12;;;;;;;;;;4383975;32;317753;-85
2023/09/26 14:02:35;;;;;;;17.10;3.70;;;;;;;;;;4370822;32;416469;-85
2023/09/26 14:05:04;;;;;;;16.92;3.58;;;;;;;;;;4381549;32;317943;-85
2023/09/26 14:07:32;;;;;;;18.08;3.60;;;;;;;;;;4371072;32;317889;-85
2023/09/26 14:10:00;;;;;;;21.00;3.75;;;;;;;;;;4383145;32;317878;-86
2023/09/26 14:12:28;;;;;;;10.90;4.03;;;;;;;;;;4373720;32;317991;-85
2023/09/26 14:14:56;;;;;;;20.50;3.33;;;;;;;;;;4383928;32;317749;-87
2023/09/26 14:17:23;;;;;;;14.13;3.80;;;;;;;;;;4369812;32;317872;-86
2023/09/26 14:19:50;;;;;;;14.38;3.45;;;;;;;;;;4382904;32;318035;-84
2023/09/26 14:22:18;;;;;;;17.02;3.10;;;;;;;;;;4372978;32;318198;-84
2023/09/26 14:24:45;;;;;;;8.60;3.45;;;;;;;;;;4384083;32;318032;-84
2023/09/26 14:27:12;;;;;;;13.23;2.92;;;;;;;;;;4373236;32;317137;-84
2023/09/26 14:29:41;;;;;;;9.00;2.75;;;;;;;;;;4381199;32;317890;-84
2023/09/26 14:32:08;;;;;;;22.08;3.95;;;;;;;;;;4370642;32;316792;-84
2023/09/26 14:34:36;;;;;;;11.55;3.15;;;;;;;;;;4381053;32;317781;-83
2023/09/26 14:37:03;;;;;;;12.98;3.40;;;;;;;;;;4384047;32;318148;-86